sensor_id;sensor_type;location;lat;lon;timestamp;temperature;humidity
6244;DHT22;3155;49.940;8.450;2022-09-13T00:02:40;12.80;99.90
6244;DHT22;3155;49.940;8.450;2022-09-13T00:05:07;11.80;99.90
6244;DHT22;3155;49.940;8.450;2022-09-13T00:07:34;11.80;99.90
6244;DHT22;3155;49.940;8.450;2022-09-13T00:12:27;11.80;99.90
6244;DHT22;3155;49.940;8.450;2022-09-13T00:14:54;11.80;99.90
6244;DHT22;3155;49.940;8.450;2022-09-13T00:17:21;11.70;99.90
6244;DHT22;3155;49.940;8.450;2022-09-13T00:19:48;11.60;99.90
6244;DHT22;3155;49.940;8.450;2022-09-13T00:22:16;11.60;99.90
6244;DHT22;3155;49.940;8.450;2022-09-13T00:24:42;11.60;99.90
6244;DHT22;3155;49.940;8.450;2022-09-13T00:27:09;11.60;99.90
6244;DHT22;3155;49.940;8.450;2022-09-13T00:29:37;11.60;99.90
6244;DHT22;3155;49.940;8.450;2022-09-13T00:32:04;11.60;99.90
6244;DHT22;3155;49.940;8.450;2022-09-13T00:34:31;11.60;99.90
6244;DHT22;3155;49.940;8.450;2022-09-13T00:36:58;11.60;99.90
6244;DHT22;3155;49.940;8.450;2022-09-13T00:39:24;11.60;99.90
6244;DHT22;3155;49.940;8.450;2022-09-13T00:41:51;11.60;99.90
6244;DHT22;3155;49.940;8.450;2022-09-13T00:44:48;11.60;99.90
6244;DHT22;3155;49.940;8.450;2022-09-13T00:47:25;11.60;99.90
6244;DHT22;3155;49.940;8.450;2022-09-13T00:49:57;11.60;99.90
6244;DHT22;3155;49.940;8.450;2022-09-13T00:52:27;11.50;99.90
6244;DHT22;3155;49.940;8.450;2022-09-13T00:55:19;11.50;99.90
6244;DHT22;3155;49.940;8.450;2022-09-13T00:57:46;11.50;99.90
6244;DHT22;3155;49.940;8.450;2022-09-13T01:55:43;11.30;99.90
6244;DHT22;3155;49.940;8.450;2022-09-13T07:21:50;10.80;99.90
6244;DHT22;3155;49.940;8.450;2022-09-13T07:24:17;16.20;99.90
6244;DHT22;3155;49.940;8.450;2022-09-13T07:26:44;16.20;99.90
6244;DHT22;3155;49.940;8.450;2022-09-13T07:29:14;16.10;99.90
6244;DHT22;3155;49.940;8.450;2022-09-13T07:31:47;16.10;99.90
6244;DHT22;3155;49.940;8.450;2022-09-13T07:34:21;16.10;99.90
6244;DHT22;3155;49.940;8.450;2022-09-13T07:36:54;15.90;99.90
6244;DHT22;3155;49.940;8.450;2022-09-13T07:39:20;15.80;99.90
6244;DHT22;3155;49.940;8.450;2022-09-13T07:41:49;15.60;99.90
6244;DHT22;3155;49.940;8.450;2022-09-13T07:44:16;15.60;99.90
6244;DHT22;3155;49.940;8.450;2022-09-13T07:46:43;15.70;99.90
6244;DHT22;3155;49.940;8.450;2022-09-13T07:49:15;15.60;99.90
6244;DHT22;3155;49.940;8.450;2022-09-13T07:51:43;15.70;99.90
6244;DHT22;3155;49.940;8.450;2022-09-13T07:54:13;15.50;99.90
6244;DHT22;3155;49.940;8.450;2022-09-13T07:56:40;15.40;99.90
6244;DHT22;3155;49.940;8.450;2022-09-13T07:59:11;15.50;99.90
6244;DHT22;3155;49.940;8.450;2022-09-13T08:01:48;15.60;99.90
6244;DHT22;3155;49.940;8.450;2022-09-13T08:04:17;15.70;99.90
6244;DHT22;3155;49.940;8.450;2022-09-13T08:06:45;15.80;99.90
6244;DHT22;3155;49.940;8.450;2022-09-13T08:09:13;15.90;99.90
6244;DHT22;3155;49.940;8.450;2022-09-13T08:11:45;16.10;99.90
6244;DHT22;3155;49.940;8.450;2022-09-13T08:14:14;16.30;99.90
6244;DHT22;3155;49.940;8.450;2022-09-13T08:44:31;16.50;99.90
6244;DHT22;3155;49.940;8.450;2022-09-13T08:58:18;18.10;99.90
6244;DHT22;3155;49.940;8.450;2022-09-13T09:00:58;17.90;99.90
6244;DHT22;3155;49.940;8.450;2022-09-13T09:03:45;17.50;99.90
6244;DHT22;3155;49.940;8.450;2022-09-13T09:06:18;17.20;99.90
6244;DHT22;3155;49.940;8.450;2022-09-13T09:08:50;16.80;99.90
6244;DHT22;3155;49.940;8.450;2022-09-13T09:11:43;16.50;99.90
6244;DHT22;3155;49.940;8.450;2022-09-13T09:14:27;16.30;99.90
6244;DHT22;3155;49.940;8.450;2022-09-13T09:17:21;16.10;99.90
6244;DHT22;3155;49.940;8.450;2022-09-13T09:19:49;16.00;99.90
6244;DHT22;3155;49.940;8.450;2022-09-13T09:22:31;16.10;99.90
6244;DHT22;3155;49.940;8.450;2022-09-13T09:25:00;16.20;99.90
6244;DHT22;3155;49.940;8.450;2022-09-13T09:27:29;16.50;99.90
6244;DHT22;3155;49.940;8.450;2022-09-13T09:29:56;16.90;99.90
6244;DHT22;3155;49.940;8.450;2022-09-13T09:38:32;17.70;99.90
6244;DHT22;3155;49.940;8.450;2022-09-13T09:46:36;18.30;99.90
6244;DHT22;3155;49.940;8.450;2022-09-13T09:49:17;18.20;99.90
6244;DHT22;3155;49.940;8.450;2022-09-13T09:52:06;18.00;99.90
6244;DHT22;3155;49.940;8.450;2022-09-13T09:54:36;17.90;99.90
6244;DHT22;3155;49.940;8.450;2022-09-13T09:57:04;17.90;99.90
6244;DHT22;3155;49.940;8.450;2022-09-13T09:59:34;17.70;99.90
6244;DHT22;3155;49.940;8.450;2022-09-13T10:02:16;17.70;99.90
6244;DHT22;3155;49.940;8.450;2022-09-13T10:04:54;17.60;99.90
6244;DHT22;3155;49.940;8.450;2022-09-13T10:07:34;17.60;99.90
6244;DHT22;3155;49.940;8.450;2022-09-13T10:10:07;17.70;99.90
6244;DHT22;3155;49.940;8.450;2022-09-13T10:12:36;17.80;99.90
6244;DHT22;3155;49.940;8.450;2022-09-13T10:15:21;17.80;99.90
6244;DHT22;3155;49.940;8.450;2022-09-13T10:18:02;17.70;99.90
6244;DHT22;3155;49.940;8.450;2022-09-13T10:20:32;17.40;99.90
6244;DHT22;3155;49.940;8.450;2022-09-13T10:23:19;17.40;99.90
6244;DHT22;3155;49.940;8.450;2022-09-13T10:26:18;17.50;99.90
6244;DHT22;3155;49.940;8.450;2022-09-13T10:29:07;17.60;99.90
6244;DHT22;3155;49.940;8.450;2022-09-13T10:31:40;17.70;99.90
6244;DHT22;3155;49.940;8.450;2022-09-13T10:37:25;17.90;99.90
6244;DHT22;3155;49.940;8.450;2022-09-13T10:40:04;18.10;99.90
6244;DHT22;3155;49.940;8.450;2022-09-13T10:42:34;18.20;99.90
6244;DHT22;3155;49.940;8.450;2022-09-13T10:45:05;18.30;99.90
6244;DHT22;3155;49.940;8.450;2022-09-13T10:47:49;18.40;99.90
6244;DHT22;3155;49.940;8.450;2022-09-13T10:52:54;18.30;99.90
6244;DHT22;3155;49.940;8.450;2022-09-13T11:38:00;21.30;99.90
6244;DHT22;3155;49.940;8.450;2022-09-13T11:40:57;21.40;99.90
6244;DHT22;3155;49.940;8.450;2022-09-13T11:43:51;21.40;99.90
6244;DHT22;3155;49.940;8.450;2022-09-13T11:46:35;21.00;99.90
6244;DHT22;3155;49.940;8.450;2022-09-13T11:57:01;19.00;99.90
6244;DHT22;3155;49.940;8.450;2022-09-13T11:59:35;18.90;99.90
6244;DHT22;3155;49.940;8.450;2022-09-13T12:04:51;19.00;99.90
6244;DHT22;3155;49.940;8.450;2022-09-13T12:07:45;19.20;99.90
6244;DHT22;3155;49.940;8.450;2022-09-13T12:10:20;19.40;99.90
6244;DHT22;3155;49.940;8.450;2022-09-13T12:12:49;19.60;99.90
6244;DHT22;3155;49.940;8.450;2022-09-13T12:15:38;19.80;99.90
6244;DHT22;3155;49.940;8.450;2022-09-13T12:18:31;20.20;99.90
6244;DHT22;3155;49.940;8.450;2022-09-13T12:21:08;20.60;99.90
6244;DHT22;3155;49.940;8.450;2022-09-13T12:23:42;20.80;99.90
6244;DHT22;3155;49.940;8.450;2022-09-13T12:29:04;20.50;99.90
6244;DHT22;3155;49.940;8.450;2022-09-13T12:31:33;20.30;99.90
6244;DHT22;3155;49.940;8.450;2022-09-13T12:34:06;20.20;99.90
6244;DHT22;3155;49.940;8.450;2022-09-13T12:42:08;19.70;99.90
6244;DHT22;3155;49.940;8.450;2022-09-13T13:01:21;20.50;99.90
6244;DHT22;3155;49.940;8.450;2022-09-13T13:03:53;20.60;99.90
